createdAt,value
2022-10-26T00:11:27.372Z,10.48
2022-10-26T00:31:30.821Z,9.93
2022-10-26T00:51:34.160Z,9.71
2022-10-26T01:53:11.274Z,9.41
2022-10-26T02:33:53.368Z,9.02
2022-10-26T02:54:16.405Z,8.82
2022-10-26T03:14:19.962Z,8.62
2022-10-26T04:14:59.159Z,8.32
2022-10-26T04:35:01.776Z,8.41
2022-10-26T04:55:07.160Z,8.29
2022-10-26T05:15:09.728Z,8.23
2022-10-26T05:35:12.282Z,8.11
2022-10-26T05:55:15.076Z,8.14
2022-10-26T06:15:18.566Z,8.38
2022-10-26T06:35:21.566Z,8.84
2022-10-26T06:55:24.077Z,9.66
2022-10-26T07:15:26.784Z,10.37
2022-10-26T07:35:30.475Z,11.00
2022-10-26T07:55:34.081Z,11.59
2022-10-26T08:15:36.742Z,12.17
2022-10-26T08:35:39.335Z,12.84
2022-10-26T08:55:44.966Z,13.58
2022-10-26T09:15:47.745Z,14.16
2022-10-26T09:35:51.206Z,14.75
2022-10-26T09:55:53.720Z,15.41
2022-10-26T10:15:56.392Z,15.82
2022-10-26T10:35:58.818Z,16.19
2022-10-26T10:56:01.548Z,16.65
2022-10-26T11:16:04.327Z,17.09
2022-10-26T11:36:06.854Z,17.17
2022-10-26T11:56:09.562Z,17.21
2022-10-26T12:16:12.307Z,17.96
2022-10-26T12:36:14.770Z,18.28
2022-10-26T12:56:17.419Z,18.62
2022-10-26T13:16:20.215Z,18.25
2022-10-26T13:36:23.698Z,17.97
2022-10-26T13:56:26.363Z,17.06
2022-10-26T14:16:29.071Z,17.21
2022-10-26T14:36:31.725Z,16.89
2022-10-26T14:56:34.278Z,16.62
2022-10-26T15:16:37.181Z,16.16
2022-10-26T15:36:39.897Z,15.42
2022-10-26T15:56:44.722Z,14.45
2022-10-26T16:16:47.234Z,13.51
2022-10-26T16:36:49.800Z,13.09
2022-10-26T16:56:52.446Z,12.83
2022-10-26T17:16:55.173Z,12.33
2022-10-26T17:36:57.671Z,12.05
2022-10-26T17:57:00.344Z,11.29
2022-10-26T18:17:02.870Z,11.32
2022-10-26T18:37:05.341Z,11.56
2022-10-26T18:57:08.026Z,11.21
2022-10-26T19:17:11.578Z,10.59
2022-10-26T19:37:14.726Z,10.18
2022-10-26T19:57:17.400Z,9.92
2022-10-26T20:17:20.907Z,9.73
2022-10-26T20:37:25.605Z,9.43
2022-10-26T20:57:28.229Z,9.20
2022-10-26T21:17:30.904Z,9.07
2022-10-26T21:58:10.749Z,8.85
2022-10-26T22:18:13.296Z,8.50
2022-10-26T22:38:15.774Z,8.41
2022-10-26T22:58:18.425Z,8.27
2022-10-26T23:18:20.974Z,8.38
2022-10-26T23:38:23.437Z,8.26
2022-10-26T23:58:26.243Z,8.18
